createdAt,value
2023-04-27T00:01:51.224Z,102310.28
2023-04-27T00:04:16.978Z,102313.88
2023-04-27T00:07:00.549Z,102315.69
2023-04-27T00:09:45.144Z,102310.38
2023-04-27T00:12:52.656Z,102318.38
2023-04-27T00:15:47.456Z,102319.31
2023-04-27T00:18:54.074Z,102319.34
2023-04-27T00:30:25.881Z,102322.06
2023-04-27T00:33:11.356Z,102318.53
2023-04-27T00:36:23.237Z,102313.25
2023-04-27T00:39:00.892Z,102306.09
2023-04-27T00:42:01.782Z,102309.66
2023-04-27T00:44:31.439Z,102309.69
2023-04-27T00:47:09.480Z,102308.84
2023-04-27T00:49:43.093Z,102312.38
2023-04-27T00:52:19.919Z,102315.97
2023-04-27T00:54:52.001Z,102321.28
2023-04-27T01:00:19.153Z,102312.44
2023-04-27T01:03:41.582Z,102320.44
2023-04-27T01:06:28.181Z,102307.13
2023-04-27T01:08:57.142Z,102302.72
2023-04-27T01:11:29.224Z,102304.50
2023-04-27T01:14:07.076Z,102300.94
2023-04-27T01:16:41.776Z,102294.75
2023-04-27T01:19:09.415Z,102295.63
2023-04-27T01:21:41.423Z,102301.88
2023-04-27T01:24:09.131Z,102299.22
2023-04-27T01:26:41.393Z,102303.69
2023-04-27T01:29:10.156Z,102311.69
2023-04-27T01:31:39.923Z,102312.59
2023-04-27T01:34:12.698Z,102320.59
2023-04-27T01:36:42.083Z,102316.16
2023-04-27T01:39:31.284Z,102312.63
2023-04-27T01:42:01.073Z,102305.53
2023-04-27T01:44:29.267Z,102308.19
2023-04-27T01:46:58.959Z,102301.13
2023-04-27T01:49:31.256Z,102298.44
2023-04-27T01:52:27.323Z,102282.47
2023-04-27T01:54:56.777Z,102286.94
2023-04-27T01:57:32.680Z,102290.47
2023-04-27T02:00:26.322Z,102279.84
2023-04-27T02:06:23.389Z,102290.50
2023-04-27T02:13:13.433Z,102294.06
2023-04-27T02:16:48.252Z,102298.53
2023-04-27T02:19:44.132Z,102297.66
2023-04-27T02:22:21.940Z,102299.44
2023-04-27T02:25:00.707Z,102295.91
2023-04-27T02:27:49.915Z,102294.13
2023-04-27T02:30:30.206Z,102296.81
2023-04-27T02:33:07.552Z,102294.16
2023-04-27T02:35:44.611Z,102292.38
2023-04-27T02:38:19.665Z,102289.72
2023-04-27T02:40:56.972Z,102281.75
2023-04-27T02:43:30.783Z,102278.19
2023-04-27T02:46:08.148Z,102279.97
2023-04-27T02:48:48.693Z,102282.66
2023-04-27T02:51:18.412Z,102273.78
2023-04-27T02:53:48.476Z,102276.47
2023-04-27T02:56:20.215Z,102276.44
2023-04-27T02:58:49.968Z,102271.13
2023-04-27T03:01:22.289Z,102270.25
2023-04-27T03:03:49.545Z,102273.81
2023-04-27T03:06:19.655Z,102281.81
2023-04-27T03:08:53.438Z,102282.69
2023-04-27T03:11:20.467Z,102283.59
2023-04-27T03:13:52.565Z,102282.69
2023-04-27T03:16:24.029Z,102285.38
2023-04-27T03:18:51.514Z,102289.81
2023-04-27T03:21:22.325Z,102288.03
2023-04-27T03:23:53.807Z,102290.72
2023-04-27T03:26:39.869Z,102296.91
2023-04-27T03:29:09.139Z,102296.91
2023-04-27T03:31:49.327Z,102287.19
2023-04-27T03:34:29.175Z,102292.50
2023-04-27T03:36:57.129Z,102289.84
2023-04-27T03:39:26.716Z,102292.50
2023-04-27T03:42:02.180Z,102289.84
2023-04-27T03:44:38.309Z,102285.38
2023-04-27T03:47:14.114Z,102291.59
2023-04-27T03:50:03.073Z,102295.16
2023-04-27T03:52:39.090Z,102293.38
2023-04-27T03:55:10.058Z,102296.94
2023-04-27T03:57:39.553Z,102293.38
2023-04-27T04:00:13.225Z,102290.72
2023-04-27T04:02:40.228Z,102295.16
2023-04-27T04:05:10.002Z,102291.63
2023-04-27T04:07:39.526Z,102291.59
2023-04-27T04:10:11.783Z,102294.28
2023-04-27T04:12:38.791Z,102293.38
2023-04-27T04:15:14.128Z,102294.28
2023-04-27T04:17:40.977Z,102297.81
2023-04-27T04:20:10.946Z,102297.84
2023-04-27T04:22:47.550Z,102304.91
2023-04-27T04:25:22.314Z,102310.22
2023-04-27T04:27:49.136Z,102316.47
2023-04-27T04:30:40.995Z,102308.44
2023-04-27T04:33:10.161Z,102318.22
2023-04-27T04:35:41.637Z,102316.44
2023-04-27T04:38:08.679Z,102317.34
2023-04-27T04:40:46.098Z,102319.09
2023-04-27T04:44:09.828Z,102316.44
2023-04-27T04:47:31.766Z,102325.28
2023-04-27T04:50:01.314Z,102334.16
2023-04-27T04:52:39.010Z,102328.81
2023-04-27T04:55:08.309Z,102332.38
2023-04-27T04:57:35.147Z,102329.72
2023-04-27T05:00:14.634Z,102323.50
2023-04-27T05:02:49.619Z,102331.47
2023-04-27T05:05:23.415Z,102326.16
2023-04-27T05:07:55.293Z,102326.16
2023-04-27T05:10:21.993Z,102324.38
2023-04-27T05:12:48.531Z,102324.38
2023-04-27T05:18:41.930Z,102325.25
2023-04-27T05:21:32.797Z,102319.03
2023-04-27T05:24:02.210Z,102319.94
2023-04-27T05:30:30.082Z,102327.91
2023-04-27T05:40:13.941Z,102339.44
2023-04-27T05:42:47.626Z,102335.00
2023-04-27T05:45:14.563Z,102335.91
2023-04-27T05:47:44.136Z,102337.66
2023-04-27T05:50:11.405Z,102335.91
2023-04-27T05:52:49.189Z,102333.25
2023-04-27T05:55:18.944Z,102333.25
2023-04-27T05:57:57.178Z,102335.94
2023-04-27T06:00:40.581Z,102338.56
2023-04-27T06:03:40.090Z,102331.50
2023-04-27T06:06:11.263Z,102336.81
2023-04-27T06:08:44.451Z,102337.69
2023-04-27T06:11:22.154Z,102339.47
2023-04-27T06:14:11.048Z,102341.25
2023-04-27T06:22:42.710Z,102337.72
2023-04-27T06:28:32.447Z,102338.63
2023-04-27T06:31:23.544Z,102339.53
2023-04-27T06:40:17.359Z,102338.63
2023-04-27T06:43:34.119Z,102335.06
2023-04-27T06:46:56.017Z,102341.28
2023-04-27T21:22:20.983Z,101785.44
2023-04-27T21:24:47.549Z,101771.19
2023-04-27T21:27:14.189Z,101778.50
2023-04-27T21:29:42.697Z,101772.34
2023-04-27T21:32:09.325Z,101767.97
2023-04-27T21:34:37.098Z,101763.56
2023-04-27T21:37:03.791Z,101769.03
2023-04-27T21:39:32.864Z,101768.28
2023-04-27T21:42:01.678Z,101755.84
2023-04-27T21:44:28.435Z,101758.56
2023-04-27T21:46:57.509Z,101749.69
2023-04-27T21:49:24.571Z,101740.78
2023-04-27T21:51:51.101Z,101738.22
2023-04-27T21:54:20.472Z,101728.44
2023-04-27T21:56:47.182Z,101718.66
2023-04-27T21:59:16.508Z,101722.31
2023-04-27T22:01:47.735Z,101717.91
2023-04-27T22:04:22.919Z,101711.75
2023-04-27T22:06:50.141Z,101713.66
2023-04-27T22:09:20.115Z,101711.97
2023-04-27T22:11:49.939Z,101706.66
2023-04-27T22:14:21.513Z,101704.97
2023-04-27T22:16:48.957Z,101705.91
2023-04-27T22:19:18.555Z,101697.94
2023-04-27T22:21:47.586Z,101697.16
2023-04-27T22:24:14.403Z,101704.41
2023-04-27T22:26:41.347Z,101691.00
2023-04-27T22:29:10.160Z,101689.28
2023-04-27T22:31:45.957Z,101682.22
2023-04-27T22:34:13.587Z,101689.50
2023-04-27T22:36:40.631Z,101685.97
2023-04-27T22:39:07.363Z,101682.50
2023-04-27T22:41:34.108Z,101671.78
2023-04-27T22:44:00.835Z,101665.59
2023-04-27T22:46:27.500Z,101660.22
2023-04-27T22:48:54.300Z,101663.84
2023-04-27T22:51:21.796Z,101665.72
2023-04-27T22:53:51.670Z,101660.47
2023-04-27T22:56:20.637Z,101661.41
2023-04-27T22:58:49.681Z,101655.22
2023-04-27T23:01:19.518Z,101657.09
2023-04-27T23:03:49.305Z,101656.19
2023-04-27T23:06:20.037Z,101657.22
2023-04-27T23:08:49.141Z,101652.75
2023-04-27T23:11:18.980Z,101662.72
2023-04-27T23:13:48.209Z,101669.13
2023-04-27T23:16:19.161Z,101662.84
2023-04-27T23:18:47.260Z,101656.63
2023-04-27T23:21:19.499Z,101650.44
2023-04-27T23:23:48.844Z,101654.06
2023-04-27T23:26:19.198Z,101651.47
2023-04-27T23:28:49.730Z,101656.91
2023-04-27T23:31:19.034Z,101647.13
2023-04-27T23:33:48.105Z,101638.19
2023-04-27T23:36:16.623Z,101630.16
2023-04-27T23:38:43.197Z,101616.81
2023-04-27T23:41:12.539Z,101614.22
2023-04-27T23:43:39.692Z,101605.31
2023-04-27T23:46:06.377Z,101591.06
2023-04-27T23:48:39.264Z,101584.78
2023-04-27T23:51:06.057Z,101587.53
2023-04-27T23:53:32.683Z,101581.34
2023-04-27T23:56:01.580Z,101576.00
2023-04-27T23:58:28.238Z,101571.63
